KLOT/LOT METAR and TAF weather

Enter ICAO airport designator
Station Type Date Time Source
KLOT METAR 2019/05/25 09:15 UTC NOAA

KLOT 250915Z AUTO 21007KT 10SM CLR 22/19 A2985 RMK AO2 T02210191


Station Type Date Time Source
KLOT Decoded METAR 2019/05/25 09:15 UTC NOAA

Chicago/Romeoville, Lewis University Airport, IL, United States (KLOT) 41-36-30N 088-05-39W
May 25, 2019 - 05:15 AM EDT / 2019.05.25 0915 UTC
Wind: from the SSW (210 degrees) at 8 MPH (7 KT):0
Visibility: 10 mile(s):0
Sky conditions: clear
Temperature: 71.8 F (22.1 C)
Dew Point: 66.4 F (19.1 C)
Relative Humidity: 83%
Pressure (altimeter): 29.85 in. Hg (1010 hPa)
ob: KLOT 250915Z AUTO 21007KT 10SM CLR 22/19 A2985 RMK AO2 T02210191
cycle: 9

Station Type Date Time Source
KLOT TAF UTC NOAA

Error!

Example: see airport list